1851 Tropical Storm NOT_NAMED (1851260N32298)


IBTrACS version v04r00. Visit IBTrACS website for data access.
Please direct all questions to the IBTrACS Q and A forum

Storm track - Intensity - Wind Radii - Intensity Data - Source Data - All data

Summary Information

Storm ID 1851260N32298
Start Sep 16 12Z
Max Intensity 45 kt (Sep 19 06Z)
End Sep 27 12Z
ATCF IDs
Track status Best track data.

Storm track plot

Map of storm track

Intensity plots

Map of storm track

Radial wind information

No radial wind information for this storm


Position and Intensity Table

BASIN ISO_TIME_________ NATURE LAT LON MLC WIND
degrees north degrees east kts
NA 1851-09-16 12:00:00 TS 31.50 -62.50 35
NA 15:00:00 TS 31.54 -62.46 35
NA 18:00:00 TS 31.60 -62.40 35
NA 21:00:00 TS 31.70 -62.30 35
NA 1851-09-17 00:00:00 TS 31.80 -62.20 35
NA 03:00:00 TS 31.86 -62.14 35
NA 06:00:00 TS 31.90 -62.10 35
NA 09:00:00 TS 31.96 -62.05 35
NA 12:00:00 TS 32.00 -62.00 35
NA 15:00:00 TS 32.01 -61.96 35
NA 18:00:00 TS 32.00 -61.90 35
NA 21:00:00 TS 31.95 -61.80 35
NA 1851-09-18 00:00:00 TS 31.90 -61.70 35
NA 03:00:00 TS 31.90 -61.64 37
NA 06:00:00 TS 31.90 -61.60 40
NA 09:00:00 TS 31.86 -61.55 40
NA 12:00:00 TS 31.80 -61.50 40
NA 15:00:00 TS 31.71 -61.45 40
NA 18:00:00 TS 31.60 -61.40 40
NA 21:00:00 TS 31.50 -61.35 40
NA 1851-09-19 00:00:00 TS 31.40 -61.30 40
NA 03:00:00 TS 31.30 -61.24 42
NA 06:00:00 TS 31.20 -61.20 45
NA 09:00:00 TS 31.10 -61.19 45
NA 12:00:00 TS 31.00 -61.20 45
NA 15:00:00 TS 30.91 -61.19 45
NA 18:00:00 TS 30.80 -61.20 45
NA 21:00:00 TS 30.65 -61.24 45
NA 1851-09-20 00:00:00 TS 30.50 -61.30 45
NA 03:00:00 TS 30.40 -61.35 45
NA 06:00:00 TS 30.30 -61.40 45
NA 09:00:00 TS 30.15 -61.43 45
NA 12:00:00 TS 30.00 -61.50 45
NA 15:00:00 TS 29.90 -61.63 45
NA 18:00:00 TS 29.80 -61.80 45
NA 21:00:00 TS 29.65 -61.99 45
NA 1851-09-21 00:00:00 TS 29.50 -62.20 45
NA 03:00:00 TS 29.40 -62.40 45
NA 06:00:00 TS 29.30 -62.60 45
NA 09:00:00 TS 29.14 -62.82 45
NA 12:00:00 TS 29.00 -63.00 45
NA 15:00:00 TS 28.98 -63.11 45
NA 18:00:00 TS 29.00 -63.20 45
NA 21:00:00 TS 29.00 -63.35 45
NA 1851-09-22 00:00:00 TS 29.00 -63.50 45
NA 03:00:00 TS 29.00 -63.60 45
NA 06:00:00 TS 29.00 -63.70 45
NA 09:00:00 TS 28.97 -63.84 45
NA 12:00:00 TS 29.00 -64.00 45
NA 15:00:00 TS 29.18 -64.19 45
NA 18:00:00 TS 29.40 -64.40 45
NA 21:00:00 TS 29.55 -64.60 45
NA 1851-09-23 00:00:00 TS 29.70 -64.80 45
NA 03:00:00 TS 29.89 -65.01 45
NA 06:00:00 TS 30.10 -65.20 45
NA 09:00:00 TS 30.31 -65.37 42
NA 12:00:00 TS 30.50 -65.50 40
NA 15:00:00 TS 30.61 -65.62 40
NA 18:00:00 TS 30.70 -65.70 40
NA 21:00:00 TS 30.85 -65.76 40
NA 1851-09-24 00:00:00 TS 31.00 -65.80 40
NA 03:00:00 TS 31.10 -65.85 40
NA 06:00:00 TS 31.20 -65.90 40
NA 09:00:00 TS 31.31 -65.96 40
NA 12:00:00 TS 31.50 -66.00 40
NA 15:00:00 TS 31.81 -66.02 40
NA 18:00:00 TS 32.20 -66.00 40
NA 21:00:00 TS 32.59 -65.91 40
NA 1851-09-25 00:00:00 TS 33.00 -65.80 40
NA 03:00:00 TS 33.41 -65.75 40
NA 06:00:00 TS 33.80 -65.70 40
NA 09:00:00 TS 34.18 -65.59 37
NA 12:00:00 TS 34.50 -65.50 35
NA 15:00:00 TS 34.73 -65.48 35
NA 18:00:00 TS 34.90 -65.50 35
NA 21:00:00 TS 35.06 -65.50 35
NA 1851-09-26 00:00:00 TS 35.20 -65.50 35
NA 03:00:00 TS 35.35 -65.50 35
NA 06:00:00 TS 35.50 -65.50 35
NA 09:00:00 TS 35.62 -65.46 32
NA 12:00:00 ET 35.80 -65.50 30
NA 15:00:00 ET 36.10 -65.68 30
NA 18:00:00 ET 36.50 -66.00 30
NA 21:00:00 ET 36.96 -66.50 30
NA 1851-09-27 00:00:00 ET 37.50 -67.00 30
NA 03:00:00 ET 38.08 -67.29 27
NA 06:00:00 ET 38.70 -67.50 25
NA 09:00:00 ET 39.35 -67.74 25
NA 12:00:00 ET 40.00 -68.00 25

Source Information

Agency Information
USA
TOKYO
CMA
HKO
NEWDELHI
REUNION
BOM
NADI
WELLINGTON
DS824
TD9636
TD9635
NEUMANN
MLC

All available IBTrACS Data

SEASON BASIN SUBBASIN ISO_TIME_________ NATURE LAT LON DIST2LAND LANDFALL IFLAG USA SSHS MLC LAT MLC LON MLC CLASS MLC WIND STORM SPEED STORM DIR
Year degrees north degrees east km km 1 degrees north degrees east kts kts degrees
1851 NA NA 1851-09-16 12:00:00 TS 31.50 -62.50 1291 1291 _____________O -1 31.50 -62.50 TS 35 1 48
1851 NA NA 15:00:00 TS 31.54 -62.46 1291 1291 _____________P -1 31.54 -62.46 TS 35 1 40
1851 NA NA 18:00:00 TS 31.60 -62.40 1295 1295 _____________O -1 31.60 -62.40 TS 35 2 40
1851 NA NA 21:00:00 TS 31.70 -62.30 1299 1299 _____________P -1 31.70 -62.30 TS 35 3 40
1851 NA NA 1851-09-17 00:00:00 TS 31.80 -62.20 1301 1296 _____________O -1 31.80 -62.20 TS 35 2 40
1851 NA NA 03:00:00 TS 31.86 -62.14 1296 1296 _____________P -1 31.86 -62.14 TS 35 1 40
1851 NA NA 06:00:00 TS 31.90 -62.10 1296 1286 _____________O -1 31.90 -62.10 TS 35 1 37
1851 NA NA 09:00:00 TS 31.96 -62.05 1291 1286 _____________P -1 31.96 -62.05 TS 35 1 40
1851 NA NA 12:00:00 TS 32.00 -62.00 1291 1291 _____________O -1 32.00 -62.00 TS 35 1 54
1851 NA NA 15:00:00 TS 32.01 -61.96 1291 1291 _____________P -1 32.01 -61.96 TS 35 1 90
1851 NA NA 18:00:00 TS 32.00 -61.90 1296 1296 _____________O -1 32.00 -61.90 TS 35 1 116
1851 NA NA 21:00:00 TS 31.95 -61.80 1301 1301 _____________P -1 31.95 -61.80 TS 35 2 121
1851 NA NA 1851-09-18 00:00:00 TS 31.90 -61.70 1315 1315 _____________O -1 31.90 -61.70 TS 35 1 111
1851 NA NA 03:00:00 TS 31.90 -61.64 1320 1320 _____________P -1 31.90 -61.64 TS 37 1 90
1851 NA NA 06:00:00 TS 31.90 -61.60 1320 1320 _____________O -1 31.90 -61.60 TS 40 1 113
1851 NA NA 09:00:00 TS 31.86 -61.55 1325 1320 _____________P -1 31.86 -61.55 TS 40 1 140
1851 NA NA 12:00:00 TS 31.80 -61.50 1335 1335 _____________O -1 31.80 -61.50 TS 40 2 150
1851 NA NA 15:00:00 TS 31.71 -61.45 1349 1344 _____________P -1 31.71 -61.45 TS 40 2 155
1851 NA NA 18:00:00 TS 31.60 -61.40 1359 1359 _____________O -1 31.60 -61.40 TS 40 2 156
1851 NA NA 21:00:00 TS 31.50 -61.35 1373 1368 _____________P -1 31.50 -61.35 TS 40 2 155
1851 NA NA 1851-09-19 00:00:00 TS 31.40 -61.30 1383 1383 _____________O -1 31.40 -61.30 TS 40 2 155
1851 NA NA 03:00:00 TS 31.30 -61.24 1397 1397 _____________P -1 31.30 -61.24 TS 42 2 155
1851 NA NA 06:00:00 TS 31.20 -61.20 1407 1407 _____________O -1 31.20 -61.20 TS 45 2 167
1851 NA NA 09:00:00 TS 31.10 -61.19 1416 1416 _____________P -1 31.10 -61.19 TS 45 2 172
1851 NA NA 12:00:00 TS 31.00 -61.20 1426 1426 _____________O -1 31.00 -61.20 TS 45 2 173
1851 NA NA 15:00:00 TS 30.91 -61.19 1431 1431 _____________P -1 30.91 -61.19 TS 45 2 172
1851 NA NA 18:00:00 TS 30.80 -61.20 1436 1436 _____________O -1 30.80 -61.20 TS 45 3 187
1851 NA NA 21:00:00 TS 30.65 -61.24 1442 1419 _____________P -1 30.65 -61.24 TS 45 3 196
1851 NA NA 1851-09-20 00:00:00 TS 30.50 -61.30 1419 1409 _____________O -1 30.50 -61.30 TS 45 3 200
1851 NA NA 03:00:00 TS 30.40 -61.35 1409 1395 _____________P -1 30.40 -61.35 TS 45 2 205
1851 NA NA 06:00:00 TS 30.30 -61.40 1395 1385 _____________O -1 30.30 -61.40 TS 45 3 195
1851 NA NA 09:00:00 TS 30.15 -61.43 1374 1360 _____________P -1 30.15 -61.43 TS 45 3 196
1851 NA NA 12:00:00 TS 30.00 -61.50 1360 1347 _____________O -1 30.00 -61.50 TS 45 3 214
1851 NA NA 15:00:00 TS 29.90 -61.63 1347 1330 _____________P -1 29.90 -61.63 TS 45 3 233
1851 NA NA 18:00:00 TS 29.80 -61.80 1330 1314 _____________O -1 29.80 -61.80 TS 45 4 232
1851 NA NA 21:00:00 TS 29.65 -61.99 1314 1287 _____________P -1 29.65 -61.99 TS 45 5 229
1851 NA NA 1851-09-21 00:00:00 TS 29.50 -62.20 1287 1271 _____________O -1 29.50 -62.20 TS 45 4 235
1851 NA NA 03:00:00 TS 29.40 -62.40 1271 1255 _____________P -1 29.40 -62.40 TS 45 4 240
1851 NA NA 06:00:00 TS 29.30 -62.60 1255 1229 _____________O -1 29.30 -62.60 TS 45 4 234
1851 NA NA 09:00:00 TS 29.14 -62.82 1229 1213 _____________P -1 29.14 -62.82 TS 45 5 229
1851 NA NA 12:00:00 TS 29.00 -63.00 1213 1211 _____________O -1 29.00 -63.00 TS 45 3 238
1851 NA NA 15:00:00 TS 28.98 -63.11 1211 1209 _____________P -1 28.98 -63.11 TS 45 2 270
1851 NA NA 18:00:00 TS 29.00 -63.20 1209 1207 _____________O -1 29.00 -63.20 TS 45 2 276
1851 NA NA 21:00:00 TS 29.00 -63.35 1207 1203 _____________P -1 29.00 -63.35 TS 45 3 270
1851 NA NA 1851-09-22 00:00:00 TS 29.00 -63.50 1203 1201 _____________O -1 29.00 -63.50 TS 45 2 270
1851 NA NA 03:00:00 TS 29.00 -63.60 1201 1200 _____________P -1 29.00 -63.60 TS 45 2 270
1851 NA NA 06:00:00 TS 29.00 -63.70 1200 1198 _____________O -1 29.00 -63.70 TS 45 2 262
1851 NA NA 09:00:00 TS 28.97 -63.84 1198 1195 _____________P -1 28.97 -63.84 TS 45 3 270
1851 NA NA 12:00:00 TS 29.00 -64.00 1195 1194 _____________O -1 29.00 -64.00 TS 45 4 304
1851 NA NA 15:00:00 TS 29.18 -64.19 1215 1215 _____________P -1 29.18 -64.19 TS 45 5 319
1851 NA NA 18:00:00 TS 29.40 -64.40 1232 1227 _____________O -1 29.40 -64.40 TS 45 5 316
1851 NA NA 21:00:00 TS 29.55 -64.60 1233 1207 _____________P -1 29.55 -64.60 TS 45 5 311
1851 NA NA 1851-09-23 00:00:00 TS 29.70 -64.80 1207 1178 _____________O -1 29.70 -64.80 TS 45 5 314
1851 NA NA 03:00:00 TS 29.89 -65.01 1178 1149 _____________P -1 29.89 -65.01 TS 45 5 319
1851 NA NA 06:00:00 TS 30.10 -65.20 1149 1121 _____________O -1 30.10 -65.20 TS 45 5 324
1851 NA NA 09:00:00 TS 30.31 -65.37 1121 1100 _____________P -1 30.31 -65.37 TS 42 5 327
1851 NA NA 12:00:00 TS 30.50 -65.50 1100 1086 _____________O -1 30.50 -65.50 TS 40 4 323
1851 NA NA 15:00:00 TS 30.61 -65.62 1086 1071 _____________P -1 30.61 -65.62 TS 40 3 319
1851 NA NA 18:00:00 TS 30.70 -65.70 1071 1057 _____________O -1 30.70 -65.70 TS 40 3 332
1851 NA NA 21:00:00 TS 30.85 -65.76 1057 1045 _____________P -1 30.85 -65.76 TS 40 3 344
1851 NA NA 1851-09-24 00:00:00 TS 31.00 -65.80 1045 1039 _____________O -1 31.00 -65.80 TS 40 3 342
1851 NA NA 03:00:00 TS 31.10 -65.85 1031 1025 _____________P -1 31.10 -65.85 TS 40 2 335
1851 NA NA 06:00:00 TS 31.20 -65.90 1025 1011 _____________O -1 31.20 -65.90 TS 40 2 337
1851 NA NA 09:00:00 TS 31.31 -65.96 1011 999 _____________P -1 31.31 -65.96 TS 40 3 344
1851 NA NA 12:00:00 TS 31.50 -66.00 999 982 _____________O -1 31.50 -66.00 TS 40 5 353
1851 NA NA 15:00:00 TS 31.81 -66.02 982 961 _____________P -1 31.81 -66.02 TS 40 7 0
1851 NA NA 18:00:00 TS 32.20 -66.00 961 949 _____________O -1 32.20 -66.00 TS 40 8 7
1851 NA NA 21:00:00 TS 32.59 -65.91 949 940 _____________P -1 32.59 -65.91 TS 40 8 12
1851 NA NA 1851-09-25 00:00:00 TS 33.00 -65.80 940 924 _____________O -1 33.00 -65.80 TS 40 8 9
1851 NA NA 03:00:00 TS 33.41 -65.75 933 919 _____________P -1 33.41 -65.75 TS 40 8 6
1851 NA NA 06:00:00 TS 33.80 -65.70 919 913 _____________O -1 33.80 -65.70 TS 40 8 10
1851 NA NA 09:00:00 TS 34.18 -65.59 916 892 _____________P -1 34.18 -65.59 TS 37 7 13
1851 NA NA 12:00:00 TS 34.50 -65.50 892 872 _____________O -1 34.50 -65.50 TS 35 6 9
1851 NA NA 15:00:00 TS 34.73 -65.48 872 852 _____________P -1 34.73 -65.48 TS 35 4 0
1851 NA NA 18:00:00 TS 34.90 -65.50 852 842 _____________O -1 34.90 -65.50 TS 35 3 355
1851 NA NA 21:00:00 TS 35.06 -65.50 832 822 _____________P -1 35.06 -65.50 TS 35 3 0
1851 NA NA 1851-09-26 00:00:00 TS 35.20 -65.50 822 812 _____________O -1 35.20 -65.50 TS 35 3 5
1851 NA NA 03:00:00 TS 35.35 -65.50 802 792 _____________P -1 35.35 -65.50 TS 35 3 0
1851 NA NA 06:00:00 TS 35.50 -65.50 792 782 _____________O -1 35.50 -65.50 TS 35 3 10
1851 NA NA 09:00:00 TS 35.62 -65.46 782 763 _____________P -1 35.62 -65.46 TS 32 3 0
1851 NA NA 12:00:00 ET 35.80 -65.50 763 725 _____________O -1 35.80 -65.50 EX 30 5 340
1851 NA NA 15:00:00 ET 36.10 -65.68 725 673 _____________P -1 36.10 -65.68 EX 30 8 330
1851 NA NA 18:00:00 ET 36.50 -66.00 673 612 _____________O -1 36.50 -66.00 EX 30 11 323
1851 NA NA 21:00:00 ET 36.96 -66.50 602 533 _____________P -1 36.96 -66.50 EX 30 13 321
1851 NA NA 1851-09-27 00:00:00 ET 37.50 -67.00 533 471 _____________O -1 37.50 -67.00 EX 30 13 331
1851 NA NA 03:00:00 ET 38.08 -67.29 461 395 _____________P -1 38.08 -67.29 EX 27 13 342
1851 NA NA 06:00:00 ET 38.70 -67.50 395 329 _____________O -1 38.70 -67.50 EX 25 13 345
1851 NA NA 09:00:00 ET 39.35 -67.74 329 252 _____________P -1 39.35 -67.74 EX 25 14 343
1851 NA NA 12:00:00 ET 40.00 -68.00 252 _____________O -1 40.00 -68.00 EX 25 14 343